This is the latest recevied weather packets stored in our database for station/object SV6DBG-10. If no packets are shown the sender has not sent any weather packets the latest 10 day(s).
| Time | Temp. | Humidity | Pressure | Rain* | Wind** | Luminosity | Snow |
|---|---|---|---|---|---|---|---|
| 1777659216 | 11.11° C | 47% | 1019.6 hPa | - | - | - | - |
| 1777658316 | 11.11° C | 46% | 1019.5 hPa | - | - | - | - |
| 1777657416 | 11.11° C | 45% | 1019.5 hPa | - | - | - | - |
| 1777656515 | 11.11° C | 44% | 1019.6 hPa | - | - | - | - |
| 1777655615 | 11.67° C | 45% | 1019.9 hPa | - | - | - | - |
| 1777654715 | 11.11° C | 45% | 1019.7 hPa | - | - | - | - |
| 1777653815 | 11.11° C | 45% | 1019.8 hPa | - | - | - | - |
| 1777652914 | 11.11° C | 46% | 1019.8 hPa | - | - | - | - |
| 1777652014 | 11.11° C | 49% | 1020 hPa | - | - | - | - |
| 1777651114 | 10.56° C | 53% | 1019.8 hPa | - | - | - | - |
| 1777650214 | 10° C | 59% | 1020 hPa | - | - | - | - |
| 1777649314 | 10.56° C | 60% | 1020 hPa | - | - | - | - |
| 1777648414 | 10° C | 61% | 1020 hPa | - | - | - | - |
| 1777647514 | 10° C | 64% | 1019.9 hPa | - | - | - | - |
| 1777646613 | 10° C | 61% | 1019.8 hPa | - | - | - | - |
| 1777645713 | 10.56° C | 57% | 1019.7 hPa | - | - | - | - |
| 1777644813 | 12.22° C | 52% | 1019.5 hPa | - | - | - | - |
| 1777643913 | 13.89° C | 44% | 1019.2 hPa | - | - | - | - |
| 1777643012 | 14.44° C | 37% | 1018.6 hPa | - | - | - | - |
| 1777642503 | 15.56° C | 36% | 1019 hPa | - | - | - | - |
| 1777642373 | 15.56° C | 35% | 1019.1 hPa | - | - | - | - |
| 1777642117 | 16.11° C | 34% | 1018.9 hPa | - | - | - | - |
| 1777641733 | 17.22° C | 33% | 1019 hPa | - | - | - | - |
| 1777640833 | 18.33° C | 30% | 1019.1 hPa | - | - | - | - |
| 1777639933 | 18.33° C | 30% | 1019.2 hPa | - | - | - | - |
* Rain since midnight (hover to see other rain measurements)
** Current wind speed in m/s (hover to see current wind gust speed)